Time;durP1;ratioP1;P1;durP2;ratioP2;P2;SDS_P1;SDS_P2;PMS_P1;PMS_P2;Temp;Humidity;BMP_temperature;BMP_pressure;BME280_temperature;BME280_humidity;BME280_pressure;Samples;Min_cycle;Max_cycle;Signal;HPM_P1;HPM_P2
2022/07/08 00:00:41;;;;;;;6.35;1.90;;;14.70;99.90;;;;;;5111162;22;20036;-56
2022/07/08 00:03:07;;;;;;;11.30;3.83;;;14.70;99.90;;;;;;5066384;28;20055;-57
2022/07/08 00:05:33;;;;;;;9.73;3.03;;;14.70;99.90;;;;;;5083613;28;20118;-56
2022/07/08 00:07:58;;;;;;;9.20;2.50;;;14.70;99.90;;;;;;5086284;28;20036;-58
2022/07/08 00:10:24;;;;;;;8.70;1.77;;;14.70;99.90;;;;;;5085501;28;20115;-58
2022/07/08 00:12:50;;;;;;;8.23;2.00;;;14.60;99.90;;;;;;5084271;28;20493;-58
2022/07/08 00:15:15;;;;;;;6.65;2.15;;;14.60;99.90;;;;;;5084787;28;20037;-55
2022/07/08 00:17:41;;;;;;;11.80;2.70;;;14.60;99.90;;;;;;5079080;28;20028;-54
2022/07/08 00:20:08;;;;;;;10.18;2.92;;;14.60;99.90;;;;;;5081070;28;20020;-54
2022/07/08 00:22:34;;;;;;;8.10;1.70;;;14.50;99.90;;;;;;5077832;28;20032;-56
2022/07/08 00:25:00;;;;;;;7.65;2.03;;;14.60;99.90;;;;;;5085925;28;20034;-55
2022/07/08 00:27:25;;;;;;;7.72;2.38;;;14.50;99.90;;;;;;5084761;28;20443;-56
2022/07/08 00:29:51;;;;;;;12.10;3.13;;;14.50;99.90;;;;;;5082598;28;20077;-56
2022/07/08 00:32:17;;;;;;;13.05;2.83;;;14.50;99.90;;;;;;5081467;28;20028;-57
2022/07/08 00:34:43;;;;;;;10.05;3.20;;;14.50;99.90;;;;;;5087478;28;20035;-55
2022/07/08 00:37:08;;;;;;;7.40;2.50;;;14.50;99.90;;;;;;5086168;28;20047;-60
2022/07/08 00:39:34;;;;;;;7.75;2.22;;;14.40;99.90;;;;;;5067302;28;20039;-54
2022/07/08 00:42:00;;;;;;;14.95;2.35;;;14.40;99.90;;;;;;5085671;28;20386;-53
2022/07/08 00:44:26;;;;;;;8.48;2.53;;;14.30;99.90;;;;;;5088317;28;20008;-55
2022/07/08 00:46:52;;;;;;;11.52;2.35;;;14.30;99.90;;;;;;5085492;28;20165;-56
2022/07/08 00:49:18;;;;;;;8.35;2.70;;;14.30;99.90;;;;;;5083303;28;20024;-57
2022/07/08 00:51:45;;;;;;;6.93;2.17;;;14.30;99.90;;;;;;5075600;28;20028;-56
2022/07/08 00:54:13;;;;;;;9.07;2.45;;;14.20;99.90;;;;;;5087807;28;20024;-56
2022/07/08 00:56:39;;;;;;;2.97;1.30;;;14.20;99.90;;;;;;5078361;28;20029;-55
2022/07/08 00:59:05;;;;;;;10.07;2.72;;;14.20;99.90;;;;;;5081861;28;20719;-50
2022/07/08 01:01:31;;;;;;;7.85;1.80;;;14.20;99.90;;;;;;5080312;28;20034;-53
2022/07/08 01:03:57;;;;;;;13.20;2.85;;;14.10;99.90;;;;;;5083027;28;20025;-52
2022/07/08 01:06:23;;;;;;;7.80;1.98;;;14.10;99.90;;;;;;5061747;28;20497;-54
2022/07/08 01:08:48;;;;;;;9.48;2.00;;;14.20;99.90;;;;;;5084339;28;20024;-53
2022/07/08 01:11:14;;;;;;;4.90;1.83;;;14.10;99.90;;;;;;5077593;28;20039;-57
2022/07/08 01:13:40;;;;;;;8.85;2.55;;;14.10;99.90;;;;;;5073958;28;20125;-56
2022/07/08 01:16:07;;;;;;;10.80;3.25;;;14.10;99.90;;;;;;5084746;28;20036;-60
2022/07/08 01:18:32;;;;;;;11.32;2.63;;;14.10;99.90;;;;;;5058795;28;20046;-57
2022/07/08 01:20:58;;;;;;;11.68;2.67;;;14.10;99.90;;;;;;5083252;28;20056;-58
2022/07/08 01:23:25;;;;;;;8.20;1.88;;;14.10;99.90;;;;;;5060224;28;20030;-56
2022/07/08 01:25:52;;;;;;;8.73;2.20;;;14.10;99.90;;;;;;5088313;28;20038;-58
2022/07/08 01:28:17;;;;;;;10.07;2.53;;;14.10;99.90;;;;;;5079468;28;20086;-57
2022/07/08 01:30:44;;;;;;;7.80;2.13;;;14.10;99.90;;;;;;5086525;28;20028;-55
2022/07/08 01:33:10;;;;;;;9.35;2.50;;;14.10;99.90;;;;;;5087930;28;20040;-52
2022/07/08 01:35:36;;;;;;;8.82;1.98;;;14.10;99.90;;;;;;5085506;28;20032;-55
2022/07/08 01:38:02;;;;;;;11.93;1.85;;;14.20;99.90;;;;;;5060124;28;20039;-56
2022/07/08 01:40:27;;;;;;;8.45;1.85;;;14.10;99.90;;;;;;5087338;28;20359;-53
2022/07/08 01:42:53;;;;;;;7.10;2.00;;;14.10;99.90;;;;;;5082613;28;20024;-58
2022/07/08 01:45:19;;;;;;;7.88;2.30;;;14.10;99.90;;;;;;5084679;28;20032;-56
2022/07/08 01:47:44;;;;;;;9.13;1.80;;;14.10;99.90;;;;;;5087196;28;20025;-56
2022/07/08 01:50:10;;;;;;;9.45;2.78;;;14.10;99.90;;;;;;5090144;28;20055;-56
2022/07/08 01:52:36;;;;;;;7.95;1.73;;;14.00;99.90;;;;;;5086065;28;20027;-54
2022/07/08 01:55:03;;;;;;;9.70;3.10;;;14.10;99.90;;;;;;5071916;28;20623;-55
2022/07/08 01:57:29;;;;;;;5.55;1.77;;;14.10;99.90;;;;;;5088975;28;20035;-51
2022/07/08 01:59:54;;;;;;;8.35;1.85;;;14.10;99.90;;;;;;5070364;28;20032;-52
2022/07/08 02:02:21;;;;;;;12.63;2.03;;;14.00;99.90;;;;;;5090828;28;20078;-55
2022/07/08 02:04:47;;;;;;;6.88;1.90;;;14.10;99.90;;;;;;5086921;28;20105;-56
2022/07/08 02:07:13;;;;;;;5.18;1.70;;;14.00;99.90;;;;;;5088851;28;20020;-57
2022/07/08 02:09:39;;;;;;;11.30;1.90;;;14.00;99.90;;;;;;5085633;28;20131;-55
2022/07/08 02:12:19;;;;;;;6.90;2.15;;;14.00;99.90;;;;;;5082521;28;20028;-52
2022/07/08 02:15:01;;;;;;;6.18;1.85;;;14.00;99.90;;;;;;5091537;28;20032;-56
2022/07/08 02:17:41;;;;;;;7.80;1.88;;;14.00;99.90;;;;;;5059231;28;20524;-56
2022/07/08 02:20:11;;;;;;;8.52;1.95;;;14.10;99.90;;;;;;5087671;28;20059;-55
2022/07/08 02:22:37;;;;;;;8.15;2.30;;;14.00;99.90;;;;;;5060949;28;20410;-58
2022/07/08 02:25:03;;;;;;;5.30;1.60;;;14.00;99.90;;;;;;5090801;28;20128;-58
2022/07/08 02:27:29;;;;;;;9.43;1.63;;;14.00;99.90;;;;;;5091488;28;20020;-57
2022/07/08 02:29:55;;;;;;;6.22;1.67;;;14.00;99.90;;;;;;5089618;28;20043;-58
2022/07/08 02:32:20;;;;;;;9.00;1.92;;;13.90;99.90;;;;;;5088003;28;20024;-58
2022/07/08 02:34:46;;;;;;;7.88;2.13;;;14.00;99.90;;;;;;5081252;28;20107;-57
2022/07/08 02:37:13;;;;;;;5.65;2.03;;;14.00;99.90;;;;;;5089616;28;20107;-55
2022/07/08 02:39:39;;;;;;;9.45;2.13;;;14.00;99.90;;;;;;5086015;28;20364;-59
2022/07/08 02:42:05;;;;;;;8.93;1.83;;;14.00;99.90;;;;;;5089446;28;20068;-57
2022/07/08 02:44:31;;;;;;;4.35;1.60;;;14.00;99.90;;;;;;5084316;28;20108;-58
2022/07/08 02:46:57;;;;;;;5.47;1.70;;;14.00;99.90;;;;;;5090492;28;20576;-58
2022/07/08 02:49:22;;;;;;;6.00;1.98;;;13.90;99.90;;;;;;5087236;28;20111;-56
2022/07/08 02:51:49;;;;;;;9.48;1.92;;;14.00;99.90;;;;;;5090639;28;20020;-57
2022/07/08 02:54:15;;;;;;;8.18;1.83;;;14.00;99.90;;;;;;5086674;28;20040;-59
2022/07/08 02:56:41;;;;;;;10.57;1.95;;;14.00;99.90;;;;;;5087543;28;20037;-56
2022/07/08 02:59:06;;;;;;;10.43;2.42;;;14.00;99.90;;;;;;5083229;28;20078;-55
2022/07/08 03:01:32;;;;;;;4.72;1.60;;;14.00;99.90;;;;;;5089554;28;20032;-58
2022/07/08 03:03:58;;;;;;;9.27;1.85;;;14.00;99.90;;;;;;5090217;28;20091;-58
2022/07/08 03:06:23;;;;;;;6.78;1.55;;;14.00;99.90;;;;;;5090264;28;20044;-58
2022/07/08 03:08:49;;;;;;;6.15;1.50;;;14.00;99.90;;;;;;5090334;28;20024;-58
2022/07/08 03:11:15;;;;;;;5.45;2.15;;;14.00;99.90;;;;;;5082048;28;20051;-54
2022/07/08 03:13:40;;;;;;;8.43;1.98;;;14.00;99.90;;;;;;5089501;28;20046;-55
2022/07/08 03:16:07;;;;;;;8.93;2.40;;;14.00;99.90;;;;;;5088407;28;20020;-57
2022/07/08 03:18:33;;;;;;;6.53;1.27;;;14.00;99.90;;;;;;5090383;28;20092;-58
2022/07/08 03:20:59;;;;;;;6.20;1.38;;;14.00;99.90;;;;;;5065299;28;20450;-55
2022/07/08 03:23:24;;;;;;;5.60;1.63;;;14.00;99.90;;;;;;5084559;28;20028;-58
2022/07/08 03:25:50;;;;;;;10.02;2.20;;;13.90;99.90;;;;;;5086225;28;20031;-58
2022/07/08 03:28:15;;;;;;;7.15;2.15;;;13.90;99.90;;;;;;5089849;28;20024;-57
2022/07/08 03:30:41;;;;;;;6.03;2.00;;;13.90;99.90;;;;;;5090068;28;20028;-58
2022/07/08 03:33:07;;;;;;;9.30;2.15;;;13.90;99.90;;;;;;5090108;28;20024;-57
2022/07/08 03:35:33;;;;;;;4.47;1.73;;;13.90;99.90;;;;;;5090099;28;20063;-56
2022/07/08 03:37:58;;;;;;;6.22;1.83;;;13.90;99.90;;;;;;5089861;28;20516;-57
2022/07/08 03:43:09;;;;;;;4.03;1.38;;;13.90;99.90;;;;;;5085322;28;20034;-61
2022/07/08 03:45:34;;;;;;;5.38;1.23;;;13.80;99.90;;;;;;5083601;28;20024;-55
2022/07/08 03:48:03;;;;;;;5.13;1.92;;;13.80;99.90;;;;;;5089875;28;20051;-53
2022/07/08 03:50:29;;;;;;;5.22;1.50;;;13.80;99.90;;;;;;5070946;28;20069;-55
2022/07/08 03:52:55;;;;;;;10.30;2.33;;;13.80;99.90;;;;;;5088841;28;20051;-58
2022/07/08 03:55:23;;;;;;;5.82;1.83;;;13.80;99.90;;;;;;5089621;28;20036;-55
2022/07/08 03:57:48;;;;;;;5.28;1.67;;;13.80;99.90;;;;;;5089642;28;20141;-53
2022/07/08 04:00:15;;;;;;;9.25;2.10;;;13.80;99.90;;;;;;5085376;28;20028;-54
2022/07/08 04:02:41;;;;;;;8.07;1.80;;;13.80;99.90;;;;;;5089296;28;20040;-53
2022/07/08 04:05:07;;;;;;;4.35;1.42;;;13.90;99.90;;;;;;5089036;28;20024;-55
2022/07/08 04:07:33;;;;;;;9.60;2.35;;;13.80;99.90;;;;;;5089535;28;20461;-56
2022/07/08 04:09:59;;;;;;;6.32;2.03;;;13.90;99.90;;;;;;5089406;28;20020;-55
2022/07/08 04:12:24;;;;;;;6.03;1.98;;;13.90;99.90;;;;;;5071310;28;20085;-53
2022/07/08 04:14:50;;;;;;;7.55;1.75;;;13.90;99.90;;;;;;5089254;28;20107;-56
2022/07/08 04:17:15;;;;;;;7.00;1.35;;;13.90;99.90;;;;;;5087674;28;20035;-54
2022/07/08 04:19:41;;;;;;;10.13;2.63;;;13.90;99.90;;;;;;5088675;28;20028;-54
2022/07/08 04:22:07;;;;;;;7.82;2.03;;;13.90;99.90;;;;;;5088068;28;20024;-55
2022/07/08 04:24:32;;;;;;;12.90;2.28;;;13.90;99.90;;;;;;5070776;28;20031;-52
2022/07/08 04:26:58;;;;;;;8.48;2.42;;;14.00;99.90;;;;;;5086146;28;20028;-55
2022/07/08 04:29:23;;;;;;;9.82;2.05;;;13.90;99.90;;;;;;5082690;28;20020;-55
2022/07/08 04:31:49;;;;;;;8.02;1.52;;;13.90;99.90;;;;;;5081635;28;20024;-58
2022/07/08 04:34:15;;;;;;;9.65;1.70;;;13.90;99.90;;;;;;5088727;28;20422;-53
2022/07/08 04:36:40;;;;;;;4.20;1.58;;;13.90;99.90;;;;;;5076752;28;20061;-59
2022/07/08 04:39:06;;;;;;;9.23;2.42;;;13.90;99.90;;;;;;5086547;28;20414;-57
2022/07/08 04:41:31;;;;;;;5.80;1.83;;;14.00;99.90;;;;;;5088095;28;20016;-56
2022/07/08 04:43:57;;;;;;;7.00;2.47;;;13.90;99.90;;;;;;5069293;28;20118;-54
2022/07/08 04:46:22;;;;;;;11.48;2.42;;;13.90;99.90;;;;;;5072543;28;20064;-58
2022/07/08 04:48:48;;;;;;;6.45;1.88;;;13.90;99.90;;;;;;5087381;28;20025;-57
2022/07/08 04:51:14;;;;;;;9.10;2.95;;;14.00;99.90;;;;;;5080563;28;20081;-55
2022/07/08 04:53:39;;;;;;;7.03;2.10;;;14.00;99.90;;;;;;5088473;28;20032;-54
2022/07/08 04:56:05;;;;;;;7.38;1.35;;;14.00;99.90;;;;;;5087076;28;20032;-56
2022/07/08 04:58:31;;;;;;;6.47;1.58;;;14.00;99.90;;;;;;5089047;28;20031;-58
2022/07/08 05:00:56;;;;;;;6.07;1.60;;;14.00;99.90;;;;;;5078757;28;20410;-53
2022/07/08 05:03:22;;;;;;;5.25;1.70;;;14.10;99.90;;;;;;5069603;28;20016;-57
2022/07/08 05:05:48;;;;;;;10.88;1.95;;;14.10;99.90;;;;;;5091236;28;20020;-57
2022/07/08 05:08:13;;;;;;;6.95;1.40;;;14.10;99.90;;;;;;5088777;28;20104;-60
2022/07/08 05:10:39;;;;;;;10.77;2.35;;;14.20;99.90;;;;;;5083703;28;20039;-56
2022/07/08 05:13:07;;;;;;;6.43;1.35;;;14.20;99.90;;;;;;5089781;28;20093;-58
2022/07/08 05:15:33;;;;;;;8.25;1.90;;;14.30;99.90;;;;;;5092382;28;20424;-57
2022/07/08 05:17:58;;;;;;;9.20;2.08;;;14.30;99.90;;;;;;5090657;28;20020;-56
2022/07/08 05:20:24;;;;;;;8.02;1.90;;;14.40;99.90;;;;;;5086608;28;20020;-58
2022/07/08 05:22:49;;;;;;;9.35;2.08;;;14.50;99.90;;;;;;5076492;28;20025;-60
2022/07/08 05:25:15;;;;;;;5.88;2.15;;;14.40;99.90;;;;;;5092515;28;20500;-56
2022/07/08 05:27:41;;;;;;;7.13;1.85;;;14.40;99.90;;;;;;5092500;28;20025;-59
2022/07/08 05:30:09;;;;;;;7.43;2.33;;;14.40;99.90;;;;;;5088274;28;20618;-58
2022/07/08 05:32:35;;;;;;;3.92;1.27;;;14.40;99.90;;;;;;5086789;28;20035;-59
2022/07/08 05:35:05;;;;;;;7.55;2.45;;;14.40;99.90;;;;;;5085210;28;20043;-58
2022/07/08 05:37:32;;;;;;;5.13;1.73;;;14.50;99.90;;;;;;5092013;28;20024;-59
2022/07/08 05:39:58;;;;;;;5.28;1.70;;;14.50;99.90;;;;;;5085449;28;20050;-59
2022/07/08 05:42:24;;;;;;;4.53;1.85;;;14.60;99.90;;;;;;5091924;28;20059;-58
2022/07/08 05:44:49;;;;;;;9.25;1.85;;;14.70;99.90;;;;;;5082749;28;20028;-56
2022/07/08 05:47:16;;;;;;;8.38;1.35;;;14.70;99.90;;;;;;5086178;28;20028;-58
2022/07/08 05:49:44;;;;;;;3.38;1.38;;;14.80;99.90;;;;;;5082724;28;20032;-56
2022/07/08 05:52:11;;;;;;;5.15;2.25;;;14.90;99.90;;;;;;5088261;28;20040;-58
2022/07/08 05:54:37;;;;;;;10.88;2.75;;;15.10;99.90;;;;;;5083527;28;20110;-58
2022/07/08 05:57:03;;;;;;;7.32;1.98;;;15.10;99.90;;;;;;5090669;28;20024;-59
2022/07/08 06:01:56;;;;;;;4.70;1.58;;;15.20;99.90;;;;;;5046318;28;20044;-59
2022/07/08 06:04:22;;;;;;;8.52;2.45;;;15.20;99.90;;;;;;5051455;28;20556;-52
2022/07/08 06:06:49;;;;;;;3.63;1.40;;;15.30;99.90;;;;;;5050843;28;20029;-61
2022/07/08 06:09:14;;;;;;;10.65;1.80;;;15.30;99.90;;;;;;5025656;28;20475;-53
2022/07/08 06:11:40;;;;;;;8.48;1.70;;;15.40;99.90;;;;;;5050656;28;20112;-55
2022/07/08 06:14:05;;;;;;;4.57;1.95;;;15.40;99.90;;;;;;5050765;28;20029;-56
2022/07/08 06:16:31;;;;;;;9.13;2.25;;;15.50;99.90;;;;;;5050752;28;20406;-55
2022/07/08 06:18:56;;;;;;;9.45;1.77;;;15.70;99.90;;;;;;5032844;28;20033;-54
2022/07/08 06:21:22;;;;;;;7.72;1.58;;;15.90;99.90;;;;;;5050220;28;20031;-54
2022/07/08 06:23:48;;;;;;;6.60;2.05;;;15.90;99.90;;;;;;5051271;28;20349;-57
2022/07/08 06:26:14;;;;;;;7.97;1.70;;;16.00;99.90;;;;;;5050383;28;20029;-57
2022/07/08 06:28:41;;;;;;;10.52;1.70;;;16.10;99.90;;;;;;5050773;28;20127;-56
2022/07/08 06:31:06;;;;;;;4.90;1.80;;;16.10;99.90;;;;;;5047211;28;20021;-54
2022/07/08 06:33:32;;;;;;;9.35;1.70;;;16.10;99.90;;;;;;5051008;28;20537;-53
2022/07/08 06:36:00;;;;;;;6.13;1.85;;;16.10;99.90;;;;;;5050768;28;20056;-58
2022/07/08 06:38:26;;;;;;;7.00;2.30;;;16.20;99.90;;;;;;5032709;28;20043;-59
2022/07/08 06:40:51;;;;;;;6.95;2.10;;;16.30;99.90;;;;;;5050707;28;20025;-54
2022/07/08 06:43:17;;;;;;;7.30;1.73;;;16.50;99.90;;;;;;5050460;28;20119;-55
2022/07/08 06:45:44;;;;;;;2.85;1.55;;;16.60;99.90;;;;;;5050786;28;20021;-53
2022/07/08 06:48:10;;;;;;;10.45;2.38;;;16.70;99.90;;;;;;5050415;28;20533;-56
2022/07/08 06:50:35;;;;;;;4.40;1.85;;;16.80;99.90;;;;;;5050670;28;20025;-56
2022/07/08 06:53:01;;;;;;;7.50;1.95;;;16.90;99.90;;;;;;5049664;28;20586;-57
2022/07/08 06:55:26;;;;;;;4.63;1.70;;;16.90;99.90;;;;;;5050153;28;20033;-57
2022/07/08 06:57:52;;;;;;;7.30;1.73;;;16.80;99.90;;;;;;5050252;28;20032;-52
2022/07/08 07:00:18;;;;;;;6.43;1.52;;;16.80;99.90;;;;;;5031706;28;20033;-55
2022/07/08 07:02:43;;;;;;;3.08;1.50;;;16.80;99.90;;;;;;5047195;28;20045;-55
2022/07/08 07:05:09;;;;;;;5.30;1.50;;;16.70;99.90;;;;;;5050214;28;20521;-58
2022/07/08 07:07:34;;;;;;;5.40;1.90;;;16.70;99.90;;;;;;5048496;28;20033;-56
2022/07/08 07:10:01;;;;;;;4.55;1.50;;;16.60;99.90;;;;;;5049764;28;20056;-58
2022/07/08 07:12:27;;;;;;;6.22;1.52;;;16.60;99.90;;;;;;5050259;28;20052;-59
2022/07/08 07:14:53;;;;;;;8.43;2.40;;;16.60;99.90;;;;;;5050079;28;20113;-57
2022/07/08 07:17:19;;;;;;;6.57;1.48;;;16.60;99.90;;;;;;5050406;28;20017;-57
2022/07/08 07:19:46;;;;;;;3.78;1.30;;;16.50;99.90;;;;;;5050282;28;20479;-59
2022/07/08 07:22:12;;;;;;;3.42;1.42;;;16.50;99.90;;;;;;5049679;28;20108;-56
2022/07/08 07:24:38;;;;;;;5.53;1.50;;;16.50;99.90;;;;;;5049160;28;20096;-58
2022/07/08 07:27:04;;;;;;;7.68;2.00;;;16.50;99.90;;;;;;5048661;28;20025;-58
2022/07/08 07:29:30;;;;;;;5.57;1.40;;;16.50;99.90;;;;;;5049613;28;20033;-54
2022/07/08 07:31:55;;;;;;;9.27;2.10;;;16.40;99.90;;;;;;5049681;28;20039;-55
2022/07/08 07:34:21;;;;;;;3.58;1.52;;;16.50;99.90;;;;;;5049821;28;20524;-57
2022/07/08 07:36:46;;;;;;;7.53;2.25;;;16.40;99.90;;;;;;5049279;28;20029;-55
2022/07/08 07:39:12;;;;;;;6.75;2.35;;;16.50;99.90;;;;;;5049742;28;20128;-58
2022/07/08 07:41:38;;;;;;;5.57;1.77;;;16.50;99.90;;;;;;5049325;28;20029;-55
2022/07/08 07:44:07;;;;;;;8.45;2.22;;;16.50;99.90;;;;;;5049287;28;20039;-58
2022/07/08 07:46:33;;;;;;;9.10;2.03;;;16.40;99.90;;;;;;5049570;28;20104;-56
2022/07/08 07:48:59;;;;;;;4.93;1.77;;;16.40;99.90;;;;;;5049509;28;20440;-57
2022/07/08 07:51:24;;;;;;;7.25;1.88;;;16.30;99.90;;;;;;5049061;28;20032;-55
2022/07/08 07:53:51;;;;;;;7.80;1.83;;;16.40;99.90;;;;;;5049414;28;20096;-58
2022/07/08 07:56:16;;;;;;;6.93;2.00;;;16.50;99.90;;;;;;5049421;28;20024;-58
2022/07/08 07:58:42;;;;;;;7.68;2.10;;;16.40;99.90;;;;;;5049677;28;20043;-54
2022/07/08 08:01:07;;;;;;;9.52;2.28;;;16.30;99.90;;;;;;5047924;28;20707;-56
2022/07/08 08:03:33;;;;;;;4.53;1.77;;;16.30;99.90;;;;;;5049417;28;20013;-56
2022/07/08 08:06:00;;;;;;;6.03;1.90;;;16.30;99.90;;;;;;5031278;28;20028;-61
2022/07/08 08:08:26;;;;;;;4.75;1.98;;;16.30;99.90;;;;;;5049425;28;20029;-55
2022/07/08 08:10:53;;;;;;;3.75;2.10;;;16.30;99.90;;;;;;5048958;28;20029;-56
2022/07/08 08:13:19;;;;;;;8.63;1.48;;;16.30;99.90;;;;;;5048539;28;20043;-56
2022/07/08 08:15:45;;;;;;;7.65;1.58;;;16.30;99.90;;;;;;5048977;28;20638;-55
2022/07/08 08:18:10;;;;;;;6.85;2.05;;;16.20;99.90;;;;;;5047205;28;20124;-57
2022/07/08 08:20:36;;;;;;;5.00;1.60;;;16.20;99.90;;;;;;5048970;28;20116;-56
2022/07/08 08:23:03;;;;;;;4.00;1.67;;;16.30;99.90;;;;;;5048315;28;20376;-56
2022/07/08 08:25:29;;;;;;;11.80;1.50;;;16.20;99.90;;;;;;5048800;28;20021;-56
2022/07/08 08:27:56;;;;;;;4.72;1.48;;;16.20;99.90;;;;;;5047801;28;20024;-53
2022/07/08 08:30:22;;;;;;;2.92;1.40;;;16.20;99.90;;;;;;5049215;28;20392;-58
2022/07/08 08:32:48;;;;;;;4.85;1.80;;;16.20;99.90;;;;;;5029967;28;20399;-56
2022/07/08 08:35:14;;;;;;;4.78;1.80;;;16.20;99.90;;;;;;5048774;28;20027;-57
2022/07/08 08:37:39;;;;;;;3.72;1.40;;;16.20;99.90;;;;;;5047453;28;20029;-57
2022/07/08 08:40:10;;;;;;;4.82;1.85;;;16.20;99.90;;;;;;5047956;28;20025;-50
2022/07/08 08:42:36;;;;;;;6.57;1.60;;;16.10;99.90;;;;;;5047983;28;20407;-56
2022/07/08 08:45:03;;;;;;;6.50;2.05;;;16.10;99.90;;;;;;5047870;28;20032;-55
2022/07/08 08:47:30;;;;;;;3.38;1.92;;;16.10;99.90;;;;;;5048504;28;20139;-56
2022/07/08 08:49:57;;;;;;;2.88;1.60;;;16.20;99.90;;;;;;5030701;28;20036;-55
2022/07/08 08:52:24;;;;;;;5.15;2.65;;;16.30;99.90;;;;;;5047956;28;20021;-57
2022/07/08 08:54:51;;;;;;;4.82;2.42;;;16.40;99.90;;;;;;5048221;28;20486;-56
2022/07/08 08:57:18;;;;;;;3.30;1.83;;;16.50;99.90;;;;;;5048084;28;20488;-54
2022/07/08 08:59:45;;;;;;;4.18;2.28;;;16.60;99.90;;;;;;5048634;28;20065;-55
2022/07/08 09:02:12;;;;;;;7.70;1.60;;;16.70;99.90;;;;;;5047666;28;20047;-53
2022/07/08 09:04:38;;;;;;;5.25;2.08;;;16.80;99.90;;;;;;5048898;28;20035;-53
2022/07/08 09:07:04;;;;;;;3.60;1.80;;;16.80;99.90;;;;;;5048367;28;20479;-53
2022/07/08 09:09:29;;;;;;;2.50;1.55;;;16.80;99.90;;;;;;5048679;28;20112;-51
2022/07/08 09:11:55;;;;;;;1.40;1.30;;;16.80;99.90;;;;;;5047466;28;20550;-54
2022/07/08 09:14:22;;;;;;;2.72;1.73;;;16.80;99.90;;;;;;5048520;28;20033;-55
2022/07/08 09:17:18;;;;;;;3.42;1.60;;;16.90;99.90;;;;;;5030405;28;20132;-55
2022/07/08 09:19:50;;;;;;;2.63;1.20;;;16.90;99.90;;;;;;5030660;28;20577;-58
2022/07/08 09:22:16;;;;;;;2.17;1.20;;;16.90;99.90;;;;;;5048149;28;20494;-54
2022/07/08 09:24:43;;;;;;;2.72;1.65;;;17.00;99.90;;;;;;5047831;28;20025;-51
2022/07/08 09:27:10;;;;;;;2.65;1.02;;;17.00;99.90;;;;;;5048080;28;20021;-58
2022/07/08 09:29:55;;;;;;;2.10;1.15;;;17.10;99.90;;;;;;5047981;28;20025;-53
2022/07/08 09:32:21;;;;;;;3.03;1.33;;;17.20;99.90;;;;;;5048552;28;20526;-56
2022/07/08 09:34:46;;;;;;;1.35;0.77;;;17.20;99.90;;;;;;5048012;28;20122;-52
2022/07/08 09:37:15;;;;;;;2.08;0.90;;;17.20;99.90;;;;;;5048433;28;20537;-55
2022/07/08 09:39:41;;;;;;;1.33;0.88;;;17.20;99.90;;;;;;5030118;28;20036;-55
2022/07/08 09:42:09;;;;;;;1.27;0.90;;;17.30;99.90;;;;;;5046377;28;20784;-52
2022/07/08 09:44:35;;;;;;;4.25;1.40;;;17.30;99.90;;;;;;5043527;28;20039;-56
2022/07/08 09:47:09;;;;;;;0.95;0.80;;;17.40;99.90;;;;;;5048417;28;20490;-53
2022/07/08 09:49:35;;;;;;;3.03;1.50;;;17.40;99.90;;;;;;5048289;28;20040;-57
2022/07/08 09:52:01;;;;;;;1.05;0.88;;;17.50;99.90;;;;;;5050259;28;20359;-54
2022/07/08 09:54:28;;;;;;;2.05;0.95;;;17.50;99.90;;;;;;5033411;28;20033;-53
2022/07/08 09:57:00;;;;;;;1.23;0.70;;;17.50;99.90;;;;;;5051440;28;20510;-56
2022/07/08 09:59:27;;;;;;;1.00;0.88;;;17.60;99.90;;;;;;5044974;28;20039;-56
2022/07/08 10:01:53;;;;;;;1.27;0.77;;;17.60;99.90;;;;;;5050907;28;20032;-58
2022/07/08 10:04:19;;;;;;;1.08;0.70;;;17.60;99.90;;;;;;5051568;28;20052;-54
2022/07/08 10:06:45;;;;;;;0.68;0.65;;;17.60;99.90;;;;;;5033527;28;20391;-54
2022/07/08 10:09:11;;;;;;;2.78;0.68;;;17.70;99.90;;;;;;5050843;28;20483;-57
2022/07/08 10:11:38;;;;;;;3.13;1.00;;;17.80;99.90;;;;;;5050715;28;20064;-58
2022/07/08 10:14:05;;;;;;;1.80;0.85;;;17.80;99.90;;;;;;5033368;28;20040;-54
2022/07/08 10:16:33;;;;;;;1.80;1.30;;;17.80;99.90;;;;;;5050814;28;20029;-54
2022/07/08 10:19:01;;;;;;;0.50;0.50;;;17.80;99.90;;;;;;5051560;28;20071;-52
2022/07/08 10:21:28;;;;;;;1.17;0.70;;;17.70;99.90;;;;;;5032754;28;20088;-54
2022/07/08 10:23:54;;;;;;;1.00;0.68;;;17.70;99.90;;;;;;5051383;28;20021;-53
2022/07/08 10:26:27;;;;;;;0.95;0.95;;;17.70;99.90;;;;;;5051237;28;20021;-53
2022/07/08 10:29:13;;;;;;;2.78;1.17;;;17.70;99.90;;;;;;5048305;28;20044;-50
2022/07/08 10:31:44;;;;;;;2.03;1.05;;;17.50;99.90;;;;;;5050992;28;20025;-51
2022/07/08 10:34:12;;;;;;;6.85;1.63;;;17.60;99.90;;;;;;5050853;28;20063;-55
2022/07/08 10:36:51;;;;;;;5.30;1.50;;;17.80;99.90;;;;;;5050701;28;20112;-54
2022/07/08 10:39:30;;;;;;;1.90;1.25;;;18.10;99.90;;;;;;5049982;28;20033;-55
2022/07/08 10:42:03;;;;;;;1.42;1.00;;;18.30;99.90;;;;;;5050355;28;20017;-51
2022/07/08 10:44:43;;;;;;;6.68;1.20;;;18.40;99.90;;;;;;5044559;28;20028;-53
2022/07/08 10:47:12;;;;;;;3.83;1.38;;;18.40;99.90;;;;;;5049823;28;20476;-58
2022/07/08 10:49:45;;;;;;;2.40;1.30;;;18.50;99.90;;;;;;5032919;28;20036;-51
2022/07/08 10:52:11;;;;;;;1.77;1.42;;;18.50;99.90;;;;;;5049941;28;20028;-54
2022/07/08 10:54:37;;;;;;;3.30;1.15;;;18.50;99.90;;;;;;5050231;28;20514;-54
2022/07/08 10:57:27;;;;;;;2.00;1.40;;;18.50;99.90;;;;;;5050360;28;20024;-54
2022/07/08 11:00:06;;;;;;;2.55;0.95;;;18.60;99.90;;;;;;5049866;28;20104;-52
2022/07/08 11:02:33;;;;;;;2.55;1.13;;;18.60;99.90;;;;;;5044376;28;20052;-56
2022/07/08 11:05:00;;;;;;;3.25;1.38;;;18.70;99.90;;;;;;5050708;28;20025;-56
2022/07/08 11:07:28;;;;;;;1.50;1.35;;;18.70;99.90;;;;;;5050296;28;20053;-58
2022/07/08 11:10:11;;;;;;;4.18;1.75;;;18.80;99.90;;;;;;5050560;28;20112;-52
2022/07/08 11:12:41;;;;;;;4.00;1.58;;;18.90;99.90;;;;;;5049888;28;20036;-54
2022/07/08 11:15:16;;;;;;;4.38;1.55;;;18.90;99.90;;;;;;5049829;28;20033;-55
2022/07/08 11:17:42;;;;;;;1.80;0.98;;;18.90;99.90;;;;;;5032512;28;20521;-56
2022/07/08 11:20:10;;;;;;;2.08;1.30;;;19.10;99.90;;;;;;5049808;28;20040;-54
2022/07/08 11:22:39;;;;;;;3.17;1.10;;;19.20;99.90;;;;;;5049528;28;20052;-54
2022/07/08 11:25:07;;;;;;;2.15;1.23;;;19.40;99.90;;;;;;5031650;28;20023;-53
2022/07/08 11:27:33;;;;;;;1.02;0.77;;;19.60;99.90;;;;;;5050183;28;20059;-54
2022/07/08 11:30:00;;;;;;;1.20;0.65;;;19.60;99.90;;;;;;5049477;28;20025;-55
2022/07/08 11:32:27;;;;;;;1.52;0.80;;;19.60;99.90;;;;;;5031803;28;20056;-56
2022/07/08 11:34:54;;;;;;;1.58;0.98;;;19.60;99.90;;;;;;5049540;28;20021;-55
2022/07/08 11:37:20;;;;;;;3.22;0.90;;;19.60;99.90;;;;;;5045531;28;20029;-56
2022/07/08 11:39:47;;;;;;;1.13;0.93;;;19.60;99.90;;;;;;5049982;28;20025;-51
2022/07/08 11:42:14;;;;;;;3.53;1.13;;;19.70;99.90;;;;;;5049762;28;20126;-55
2022/07/08 11:44:40;;;;;;;2.60;1.00;;;19.60;99.90;;;;;;5049897;28;20104;-57
2022/07/08 11:47:07;;;;;;;0.80;0.77;;;19.60;99.90;;;;;;5049550;28;20024;-56
2022/07/08 11:49:39;;;;;;;2.75;0.85;;;19.60;99.90;;;;;;5049516;28;20029;-53
2022/07/08 11:52:05;;;;;;;2.83;1.00;;;19.60;99.90;;;;;;5048979;28;20474;-54
2022/07/08 11:54:30;;;;;;;1.08;0.90;;;19.70;99.90;;;;;;5049826;28;20094;-52
2022/07/08 11:56:58;;;;;;;3.63;1.40;;;19.70;99.90;;;;;;5031442;28;20561;-56
2022/07/08 11:59:24;;;;;;;2.35;1.10;;;19.70;99.90;;;;;;5049313;28;20036;-51
2022/07/08 12:01:51;;;;;;;2.10;0.93;;;19.60;99.90;;;;;;5071820;22;20534;-59
2022/07/08 12:04:17;;;;;;;2.90;0.90;;;19.70;99.90;;;;;;5049385;28;20021;-60
2022/07/08 12:06:56;;;;;;;2.88;1.25;;;19.90;99.90;;;;;;5049442;28;20029;-61
2022/07/08 12:09:24;;;;;;;1.95;1.13;;;20.10;99.90;;;;;;5049471;28;20021;-58
2022/07/08 12:11:52;;;;;;;2.03;1.17;;;20.20;99.90;;;;;;5049045;28;20423;-58
2022/07/08 12:14:18;;;;;;;1.85;1.10;;;20.30;99.90;;;;;;5048797;28;20510;-61
2022/07/08 12:16:48;;;;;;;2.85;1.50;;;20.20;99.90;;;;;;5048959;28;20036;-58
2022/07/08 12:19:36;;;;;;;4.70;1.52;;;20.10;99.90;;;;;;5047603;28;20024;-61
2022/07/08 12:22:06;;;;;;;3.53;1.60;;;20.20;99.90;;;;;;5048841;28;20090;-60
2022/07/08 12:24:33;;;;;;;3.88;1.23;;;20.20;99.90;;;;;;5048714;28;20039;-58
2022/07/08 12:27:30;;;;;;;4.85;1.58;;;20.10;99.90;;;;;;5049220;28;20079;-59
2022/07/08 12:30:05;;;;;;;3.67;1.50;;;20.10;99.90;;;;;;5027462;28;20037;-58
2022/07/08 12:32:38;;;;;;;1.52;1.42;;;20.10;99.90;;;;;;5030208;28;20032;-55
2022/07/08 12:35:05;;;;;;;3.65;1.70;;;20.30;99.90;;;;;;5048567;28;20118;-55
2022/07/08 12:37:31;;;;;;;6.00;2.10;;;20.50;99.90;;;;;;5047854;28;20032;-58
2022/07/08 12:39:56;;;;;;;3.45;1.67;;;20.60;99.90;;;;;;5048583;28;20017;-58
2022/07/08 12:42:26;;;;;;;5.43;1.42;;;20.70;99.90;;;;;;5030489;28;20029;-58
2022/07/08 12:44:54;;;;;;;6.03;2.25;;;20.70;99.90;;;;;;5048586;28;20013;-58
2022/07/08 12:47:20;;;;;;;3.28;1.75;;;20.70;99.90;;;;;;5048803;28;20132;-55
2022/07/08 12:49:46;;;;;;;3.03;1.20;;;20.70;99.90;;;;;;5049090;28;20100;-58